Historyczne dane pomiarowe

Dodano dane terminowe – wersja testowa.

Dane z okresu 1951-2019

Wersja bazy: 1.34 [2019-03-16, lista zmian], aktualizacja planowana na 2019-04-15

Dane meteo z obszaru Polski uzyskane na podstawie danych udostępnionych przez Instytut Meteorologii i Gospodarki Wodnej – Państwowy Instytut Badawczy.

 

Wybierz Datę:    

       

TemperaturaWilgotnośćWiatrCiśnienieOpadyŚniegCzas trwania zjawisk
 Stacja t tx tn tng RH VA  wxwx mslp ppp RRR   cm mm wxwxwxwxwxwxwx
1987-08-14 15.4 20.0 9.6 5.5 77.8- 5.0 1.7---- 0.0------------
1987-08-13 12.2 15.9 7.2 5.6 93.5- 5.3 2.0---- 0.0------------
1987-08-12 12.9 17.9 10.0 9.0 81.5- 6.0 2.0---- 0.0------------
1987-08-11 13.6 17.6 12.5 11.6 89.8- 5.3 4.0---- 0.0------------
1987-08-10 15.4 19.9 14.0 13.2 89.8- 7.0 1.7---- 0.0------------
1987-08-09 17.4 23.3 10.8 7.5 70.0- 3.0 2.0---- 0.7------------
1987-08-08 14.0 18.3 11.0 10.5 81.3- 7.3 2.0---- 0.0------------
1987-08-07 13.0 17.4 8.8 7.4 87.8- 3.7 2.3---- 1.1------------
1987-08-06 11.5 14.9 10.0 7.8 96.5- 6.0 2.0---- 7.4------------
1987-08-05 12.9 17.7 7.2 4.4 80.0- 2.3 2.3---- 0.0------------
1987-08-04 14.1 19.7 7.2 5.5 87.3- 3.7 2.7---- 2.6------------
1987-08-03 14.6 17.9 12.0 10.6 79.3- 2.3 2.7---- 0.0------------
1987-08-02 15.2 19.1 13.4 13.0 81.5- 4.0 1.7---- 0.7------------
1987-08-01 16.5 21.3 9.6 7.5 76.8- 4.0 1.7---- 2.3------------
1987-07-31 16.4 20.0 11.3 10.0 88.5- 7.7 4.7---- 2.6------------
1987-07-30 16.5 21.9 10.4 13.0 77.5- 4.3 1.3---- 0.0------------
1987-07-29 13.5 16.7 10.5 8.7 89.3- 5.7 1.7---- 0.0------------
1987-07-28 13.8 16.9 10.5 8.5 94.3- 6.3 1.7---- 2.7------------
1987-07-27 12.7 17.7 8.2 2.4 79.5- 4.0 2.7---- 0.0------------
1987-07-26 14.7 18.6 12.0 12.7 91.8- 7.3 2.0---- 7.5------------
1987-07-25 18.9 24.9 16.8 15.5 92.3- 4.0 1.0---- 2.7------------
1987-07-24 19.8 25.8 14.5 12.5 80.0- 6.3 1.3---- 0.0------------
1987-07-23 20.8 27.6 14.8 13.6 81.0- 1.3 1.0---- 0.0------------
1987-07-22 21.1 27.0 14.4 13.0 85.5- 4.7 2.0---- 0.0------------
1987-07-21 19.5 24.4 11.8 10.1 81.5- 0.0 1.0---- 0.0------------
1987-07-20 21.6 27.2 17.9 17.4 85.3- 2.0 2.0---- 0.0------------
1987-07-19 19.2 22.2 14.5 13.5 89.0- 5.3 3.0---- 0.0------------
1987-07-18 19.7 22.7 17.3 17.0 91.0- 7.3 2.7---- 0.6------------
1987-07-17 19.1 25.4 13.2 11.7 81.8- 7.0 2.3---- 16.5------------
1987-07-16 18.7 25.4 8.8 7.0 66.3- 0.7 1.0---- 0.0------------
1987-07-15 16.3 21.6 7.0 4.8 72.3- 1.3 1.7---- 0.0------------
1987-07-14 15.0 18.4 10.5 14.0 79.0- 3.0 1.3---- 0.0------------
1987-07-13 18.1 21.7 12.0 10.5 75.5- 2.0 1.0---- 0.0------------
1987-07-12 21.6 27.4 15.1 14.0 66.0- 4.0 1.7---- 1.0------------
1987-07-11 16.4 21.4 8.2 5.0 64.3- 3.0 1.7---- 0.0------------
1987-07-10 14.9 18.5 11.2 10.2 69.3- 1.7 2.3---- 0.0------------
1987-07-09 18.8 25.1 14.6 14.8 84.0- 6.0 1.0---- 10.5------------
1987-07-08 21.6 28.7 10.5 8.1 58.5- 0.0 1.0---- 0.0------------
1987-07-07 19.5 25.2 9.6 6.4 64.8- 0.0 1.0---- 0.0------------
1987-07-06 17.2 22.6 8.4 6.0 68.8- 0.0 0.7---- 0.0------------
1987-07-05 16.3 21.5 11.2 14.5 79.8- 3.3 2.3---- 0.0------------
1987-07-04 16.7 21.7 9.4 6.5 69.5- 4.0 1.7---- 0.0------------
1987-07-03 19.1 22.5 10.9 16.0 71.0- 3.3 1.7---- 0.0------------
1987-07-02 20.4 27.0 19.0 17.5 80.3- 5.3 2.0---- 0.0------------
1987-07-01 25.2 31.5 17.5 16.0 74.5- 0.3 1.0---- 0.0------------
1987-06-30 23.3 27.2 18.3 16.7 82.0- 1.7 1.0---- 0.0------------
1987-06-29 17.5 22.3 9.8 9.5 76.0- 0.0 1.0---- 0.2------------
1987-06-28 18.2 24.0 11.7 10.0 88.3- 5.0 1.3---- 0.0------------
1987-06-27 18.4 20.6 12.6 11.6 89.8- 5.0 1.3---- 0.0------------
1987-06-26 15.9 21.6 7.0 6.0 78.0- 1.3 1.3---- 0.0------------
1987-06-25 12.9 18.5 10.4 8.4 91.8- 6.7 2.0---- 1.0------------
1987-06-24 16.5 20.0 11.5 9.5 81.3- 2.3 2.0---- 3.6------------
1987-06-23 17.5 23.1 10.9 9.5 86.0- 2.3 1.7---- 4.6------------
1987-06-22 17.8 23.5 9.5 7.0 81.0- 3.7 3.0---- 4.3------------
1987-06-21 17.8 23.6 9.6 7.4 71.8- 3.3 1.3---- 0.0------------
1987-06-20 15.4 21.7 5.7 3.0 72.0- 1.7 2.0---- 0.0------------
1987-06-19 12.3 17.2 5.6 2.8 77.5- 2.0 2.3---- 0.0------------
1987-06-18 12.1 18.0 5.2 2.4 79.5- 1.7 1.7---- 0.5------------
1987-06-17 12.4 15.1 8.6 7.0 81.0- 6.3 2.7---- 0.0------------
1987-06-16 17.3 25.3 12.4 13.0 82.3- 5.3 6.0---- 0.0------------
1030.8 ms

 

Źródłem pochodzenia danych jest Instytut Meteorologii i Gospodarki Wodnej – Państwowy Instytut Badawczy. Dane Instytutu Meteorologii i Gospodarki Wodnej – Państwowego Instytutu Badawczego zostały przetworzone.

Dane źródłowe można odnaleźć na stronie https://dane.imgw.pl